Terminal Aerodrome Forecast
Issued by NWS Wilmington, OH

Current Version | Previous Version | Text Only | Print | Product List | Glossary Off
Versions: 1 2 3 4 5 6 7 8 9 10 11 12 13 14 15 16 17 18 19 20 21 22 23 24 25 26 27

986
FTUS41 KILN 212320
TAFCMH
TAF
KCMH 212320Z 2200/2224 24005KT P6SM FEW050 SCT200
      TEMPO 2200/2201 4SM -SHRA BKN060
     FM220100 VRB04KT P6SM SCT200
     FM220600 VRB03KT 5SM BR VCSH SCT080 BKN150
     FM221000 19003KT 5SM -SHRA VCTS BKN050CB
      TEMPO 2210/2213 3SM -TSRA BKN025CB
     FM221400 21008KT P6SM BKN080
     FM222000 23012KT P6SM VCSH BKN050=

USA.gov is the U.S. government's official web portal to all federal, state and local government web resources and services.